Union Hill, New York
Current Conditions -  °F | °C
As of 12:54 AM on Friday 19 Dec 2014 (Local Time) from KROC Reporting Station
Light Snow Light Snow  
Wind Chill: 20°   Ceiling: 800
Heat Index: 28°   Visibility: 9mi
Dew Point: 24°   Wind: 8mph
Humidity: 85%   Direction: 320°NW
Pressure: 30.06"   Gusts: NA
Location:  43.22°N, 77.37°W
Report Text: KROC 190554Z 32007KT 9SM -SN OVC008 M02/M04 A3006 RMK AO2 FZDZE49 SLP189 P0000 60000 I1000 I6001 T10221044 10000 21028 50004
Loading
Personal Weather Stations






























Interactive Weather Map New forecast layout! Learn more

10-Day Weather Forecast

Advertisements
Track Severe Weather on mobile